Time;durP1;ratioP1;P1;durP2;ratioP2;P2;SDS_P1;SDS_P2;PMS_P1;PMS_P2;Temp;Humidity;BMP_temperature;BMP_pressure;BME280_temperature;BME280_humidity;BME280_pressure;Samples;Min_cycle;Max_cycle;Signal;HPM_P1;HPM_P2
2021/07/03 00:00:31;;;;;;;;;;;15.40;99.90;;;;;;5101606;28;19926;-85
2021/07/03 00:02:57;;;;;;;;;;;15.30;99.90;;;;;;5089335;28;20291;-84
2021/07/03 00:05:23;;;;;;;;;;;15.20;99.90;;;;;;5071811;28;19946;-84
2021/07/03 00:07:48;;;;;;;;;;;15.20;99.90;;;;;;5088395;28;20333;-84
2021/07/03 00:10:14;;;;;;;;;;;15.30;99.90;;;;;;5088059;28;19924;-83
2021/07/03 00:12:40;;;;;;;;;;;15.30;99.90;;;;;;5089140;28;20421;-84
2021/07/03 00:15:07;;;;;;;;;;;15.20;99.90;;;;;;5072188;28;20424;-85
2021/07/03 00:17:32;;;;;;;;;;;15.20;99.90;;;;;;5089140;28;19943;-84
2021/07/03 00:19:58;;;;;;;;;;;15.10;99.90;;;;;;5070182;28;20379;-85
2021/07/03 00:22:24;;;;;;;;;;;15.10;99.90;;;;;;5088751;28;20357;-84
2021/07/03 00:24:49;;;;;;;;;;;15.10;99.90;;;;;;5089498;28;19920;-84
2021/07/03 00:27:15;;;;;;;;;;;15.00;99.90;;;;;;5052586;28;19960;-84
2021/07/03 00:29:41;;;;;;;;;;;15.10;99.90;;;;;;5070591;28;19978;-85
2021/07/03 00:32:06;;;;;;;;;;;15.10;99.90;;;;;;5071313;28;19973;-85
2021/07/03 00:34:32;;;;;;;;;;;15.10;99.90;;;;;;5055984;28;19928;-85
2021/07/03 00:36:58;;;;;;;;;;;15.00;99.90;;;;;;5088900;28;20671;-85
2021/07/03 00:39:23;;;;;;;;;;;15.00;99.90;;;;;;5088716;28;19920;-85
2021/07/03 00:41:49;;;;;;;;;;;15.00;99.90;;;;;;5088653;28;20378;-86
2021/07/03 00:44:25;;;;;;;;;;;15.00;99.90;;;;;;5088216;28;19931;-85
2021/07/03 00:46:51;;;;;;;;;;;15.00;99.90;;;;;;5093840;28;19928;-85
2021/07/03 00:49:16;;;;;;;;;;;15.00;99.90;;;;;;5069343;28;19932;-85
2021/07/03 00:51:42;;;;;;;;;;;15.00;99.90;;;;;;5070061;28;20053;-85
2021/07/03 00:54:09;;;;;;;;;;;15.00;99.90;;;;;;5088342;28;19932;-85
2021/07/03 00:56:34;;;;;;;;;;;15.00;99.90;;;;;;5071621;28;19920;-85
2021/07/03 00:59:00;;;;;;;;;;;14.90;99.90;;;;;;5069517;28;20427;-85
2021/07/03 01:01:26;;;;;;;;;;;14.90;99.90;;;;;;5087854;28;19920;-85
2021/07/03 01:03:51;;;;;;;;;;;14.90;99.90;;;;;;5088360;28;19946;-86
2021/07/03 01:06:17;;;;;;;;;;;14.90;99.90;;;;;;5071314;28;20362;-85
2021/07/03 01:08:43;;;;;;;;;;;14.90;99.90;;;;;;5071671;28;20302;-85
2021/07/03 01:11:09;;;;;;;;;;;14.90;99.90;;;;;;5087356;28;19931;-85
2021/07/03 01:13:34;;;;;;;;;;;14.80;99.90;;;;;;5071057;28;19931;-85
2021/07/03 01:16:00;;;;;;;;;;;14.80;99.90;;;;;;5070926;28;19963;-85
2021/07/03 01:18:26;;;;;;;;;;;14.80;99.90;;;;;;5087598;28;19959;-85
2021/07/03 01:20:53;;;;;;;;;;;14.70;99.90;;;;;;5070866;28;19927;-85
2021/07/03 01:23:19;;;;;;;;;;;14.70;99.90;;;;;;5113232;28;19920;-85
2021/07/03 01:25:45;;;;;;;;;;;14.70;99.90;;;;;;5087504;28;19924;-85
2021/07/03 01:28:10;;;;;;;;;;;14.70;99.90;;;;;;5087445;28;19974;-84
2021/07/03 01:30:36;;;;;;;;;;;14.70;99.90;;;;;;5070787;28;20007;-86
2021/07/03 01:33:03;;;;;;;;;;;14.70;99.90;;;;;;5088906;28;20030;-85
2021/07/03 01:35:29;;;;;;;;;;;14.70;99.90;;;;;;5086105;28;19927;-86
2021/07/03 01:37:56;;;;;;;;;;;14.70;99.90;;;;;;5091215;28;19970;-86
2021/07/03 01:40:22;;;;;;;;;;;14.70;99.90;;;;;;5092391;28;19927;-85
2021/07/03 01:42:48;;;;;;;;;;;14.60;99.90;;;;;;5090887;28;19920;-85
2021/07/03 01:45:13;;;;;;;;;;;14.60;99.90;;;;;;5108483;27;20430;-86
2021/07/03 01:47:44;;;;;;;;;;;14.60;99.90;;;;;;5090996;28;19960;-85
2021/07/03 01:50:10;;;;;;;;;;;14.60;99.90;;;;;;5092031;28;19924;-83
2021/07/03 01:52:37;;;;;;;;;;;14.60;99.90;;;;;;5089428;28;20019;-82
2021/07/03 01:55:08;;;;;;;;;;;14.50;99.90;;;;;;5073436;28;19935;-82
2021/07/03 01:57:34;;;;;;;;;;;14.50;99.90;;;;;;5054118;28;19977;-82
2021/07/03 02:00:01;;;;;;;;;;;14.60;99.90;;;;;;5089876;28;19970;-82
2021/07/03 02:02:26;;;;;;;;;;;14.60;99.90;;;;;;5089522;28;19951;-82
2021/07/03 02:04:52;;;;;;;;;;;14.50;99.90;;;;;;5089459;28;20265;-83
2021/07/03 02:07:18;;;;;;;;;;;14.50;99.90;;;;;;5089472;28;20383;-82
2021/07/03 02:09:43;;;;;;;;;;;14.50;99.90;;;;;;5070954;28;19968;-82
2021/07/03 02:12:09;;;;;;;;;;;14.50;99.90;;;;;;5089371;28;19928;-82
2021/07/03 02:14:35;;;;;;;;;;;14.50;99.90;;;;;;5055824;28;19928;-82
2021/07/03 02:17:01;;;;;;;;;;;14.40;99.90;;;;;;5090465;28;20060;-82
2021/07/03 02:19:26;;;;;;;;;;;14.40;99.90;;;;;;5072541;28;19924;-82
2021/07/03 02:21:52;;;;;;;;;;;14.40;99.90;;;;;;5090174;28;19958;-83
2021/07/03 02:24:18;;;;;;;;;;;14.40;99.90;;;;;;5071100;28;19929;-82
2021/07/03 02:26:43;;;;;;;;;;;14.40;99.90;;;;;;5054384;28;19924;-82
2021/07/03 02:29:09;;;;;;;;;;;14.30;99.90;;;;;;5071704;28;19947;-82
2021/07/03 02:31:35;;;;;;;;;;;14.30;99.90;;;;;;5072185;28;20383;-82
2021/07/03 02:34:01;;;;;;;;;;;14.40;99.90;;;;;;5090381;28;19924;-82
2021/07/03 02:36:27;;;;;;;;;;;14.40;99.90;;;;;;5072035;28;19974;-82
2021/07/03 02:38:52;;;;;;;;;;;14.40;99.90;;;;;;5072307;28;20351;-82
2021/07/03 02:41:18;;;;;;;;;;;14.40;99.90;;;;;;5088613;28;19931;-82
2021/07/03 02:43:44;;;;;;;;;;;14.30;99.90;;;;;;5071712;28;19920;-82
2021/07/03 02:46:10;;;;;;;;;;;14.30;99.90;;;;;;5071486;28;19964;-82
2021/07/03 02:48:35;;;;;;;;;;;14.30;99.90;;;;;;5055722;28;19932;-82
2021/07/03 02:51:02;;;;;;;;;;;14.20;99.90;;;;;;5089637;28;19920;-82
2021/07/03 02:53:27;;;;;;;;;;;14.20;99.90;;;;;;5090019;28;19928;-82
2021/07/03 02:55:54;;;;;;;;;;;14.20;99.90;;;;;;5055345;28;20462;-82
2021/07/03 02:58:19;;;;;;;;;;;14.20;99.90;;;;;;5087594;28;20007;-83
2021/07/03 03:00:45;;;;;;;;;;;14.20;99.90;;;;;;5069610;28;19921;-81
2021/07/03 03:03:11;;;;;;;;;;;14.20;99.90;;;;;;5088660;28;19924;-82
2021/07/03 03:05:36;;;;;;;;;;;14.20;99.90;;;;;;5071202;28;20015;-83
2021/07/03 03:08:02;;;;;;;;;;;14.20;99.90;;;;;;5071310;28;20394;-81
2021/07/03 03:10:28;;;;;;;;;;;14.10;99.90;;;;;;5090158;28;20389;-85
2021/07/03 03:12:54;;;;;;;;;;;14.10;99.90;;;;;;5071193;28;19927;-85
2021/07/03 03:15:19;;;;;;;;;;;14.10;99.90;;;;;;5090452;28;19981;-85
2021/07/03 03:17:45;;;;;;;;;;;14.20;99.90;;;;;;5090796;28;19959;-82
2021/07/03 03:20:12;;;;;;;;;;;14.20;99.90;;;;;;5087717;28;20384;-82
2021/07/03 03:22:38;;;;;;;;;;;14.20;99.90;;;;;;5071340;28;19924;-82
2021/07/03 03:25:05;;;;;;;;;;;14.10;99.90;;;;;;5054650;28;20061;-82
2021/07/03 03:27:32;;;;;;;;;;;14.20;99.90;;;;;;5071405;28;19935;-81
2021/07/03 03:29:58;;;;;;;;;;;14.20;99.90;;;;;;5087823;28;19928;-82
2021/07/03 03:32:23;;;;;;;;;;;14.20;99.90;;;;;;5087152;28;19970;-82
2021/07/03 03:34:49;;;;;;;;;;;14.20;99.90;;;;;;5087733;28;19927;-82
2021/07/03 03:37:15;;;;;;;;;;;14.10;99.90;;;;;;5087651;28;19921;-82
2021/07/03 03:39:41;;;;;;;;;;;14.20;99.90;;;;;;5071190;28;19924;-81
2021/07/03 03:42:06;;;;;;;;;;;14.20;99.90;;;;;;5070439;28;19920;-82
2021/07/03 03:44:32;;;;;;;;;;;14.20;99.90;;;;;;5070546;28;19981;-81
2021/07/03 03:46:58;;;;;;;;;;;14.10;99.90;;;;;;5086812;28;20010;-81
2021/07/03 03:49:23;;;;;;;;;;;14.10;99.90;;;;;;5069980;28;20387;-82
2021/07/03 03:51:49;;;;;;;;;;;14.10;99.90;;;;;;5086641;28;20008;-81
2021/07/03 03:54:16;;;;;;;;;;;14.20;99.90;;;;;;5070754;28;20379;-81
2021/07/03 03:56:42;;;;;;;;;;;14.20;99.90;;;;;;5070932;28;19924;-81
2021/07/03 03:59:10;;;;;;;;;;;14.20;99.90;;;;;;5088776;28;19977;-82
2021/07/03 04:01:35;;;;;;;;;;;14.30;99.90;;;;;;5089501;28;19924;-80
2021/07/03 04:04:01;;;;;;;;;;;14.30;99.90;;;;;;5087646;28;19920;-82
2021/07/03 04:06:27;;;;;;;;;;;14.40;99.90;;;;;;5069591;28;20294;-82
2021/07/03 04:08:52;;;;;;;;;;;14.50;99.90;;;;;;5087138;28;19928;-81
2021/07/03 04:11:18;;;;;;;;;;;14.50;99.90;;;;;;5069577;28;19920;-82
2021/07/03 04:13:44;;;;;;;;;;;14.60;99.90;;;;;;5068707;28;19920;-81
2021/07/03 04:16:09;;;;;;;;;;;14.70;99.90;;;;;;5096565;28;19920;-83
2021/07/03 04:18:35;;;;;;;;;;;14.80;99.90;;;;;;5069807;28;19954;-82
2021/07/03 04:21:01;;;;;;;;;;;14.90;99.90;;;;;;5068592;28;19969;-81
2021/07/03 04:23:27;;;;;;;;;;;14.90;99.90;;;;;;5069077;28;19969;-82
2021/07/03 04:25:52;;;;;;;;;;;14.90;99.90;;;;;;5085946;28;19924;-81
2021/07/03 04:28:18;;;;;;;;;;;15.00;99.90;;;;;;5066316;28;19932;-81
2021/07/03 04:30:44;;;;;;;;;;;15.10;99.90;;;;;;5067017;28;19928;-82
2021/07/03 04:33:10;;;;;;;;;;;15.20;99.90;;;;;;5069148;28;19950;-81
2021/07/03 04:35:36;;;;;;;;;;;15.30;99.90;;;;;;5069382;28;19981;-82
2021/07/03 04:38:03;;;;;;;;;;;15.30;99.90;;;;;;5086780;28;19924;-83
2021/07/03 04:40:28;;;;;;;;;;;15.40;99.90;;;;;;5088413;28;20011;-81
2021/07/03 04:42:54;;;;;;;;;;;15.50;99.90;;;;;;5070303;28;19924;-81
2021/07/03 04:45:20;;;;;;;;;;;15.50;99.90;;;;;;5046405;28;19924;-82
2021/07/03 04:47:46;;;;;;;;;;;15.60;99.90;;;;;;5088880;28;19924;-82
2021/07/03 04:50:12;;;;;;;;;;;15.60;99.90;;;;;;5071564;28;19928;-82
2021/07/03 04:52:38;;;;;;;;;;;15.60;99.90;;;;;;5087506;28;20019;-81
2021/07/03 04:55:05;;;;;;;;;;;15.70;99.90;;;;;;5089225;28;19928;-82
2021/07/03 04:57:31;;;;;;;;;;;15.70;99.90;;;;;;5071437;28;19932;-82
2021/07/03 04:59:57;;;;;;;;;;;15.70;99.90;;;;;;5088186;28;19924;-82
2021/07/03 05:02:22;;;;;;;;;;;15.80;99.90;;;;;;5089178;28;20384;-82
2021/07/03 05:04:48;;;;;;;;;;;15.80;99.90;;;;;;5071092;28;19928;-82
2021/07/03 05:07:14;;;;;;;;;;;15.80;99.90;;;;;;5089867;28;20023;-82
2021/07/03 05:09:40;;;;;;;;;;;15.90;99.90;;;;;;5092069;28;20027;-82
2021/07/03 05:12:06;;;;;;;;;;;15.90;99.90;;;;;;5074971;28;19928;-82
2021/07/03 05:14:32;;;;;;;;;;;15.90;99.90;;;;;;5092049;28;20357;-81
2021/07/03 05:16:57;;;;;;;;;;;16.00;99.90;;;;;;5058687;28;20034;-82
2021/07/03 05:19:23;;;;;;;;;;;16.00;99.90;;;;;;5075099;28;19927;-82
2021/07/03 05:21:49;;;;;;;;;;;16.10;99.90;;;;;;5091717;28;19931;-82
2021/07/03 05:24:15;;;;;;;;;;;16.10;99.90;;;;;;5074436;28;19920;-83
2021/07/03 05:26:40;;;;;;;;;;;16.10;99.90;;;;;;5091504;28;20376;-81
2021/07/03 05:29:06;;;;;;;;;;;16.20;99.90;;;;;;5074926;28;19939;-82
2021/07/03 05:31:32;;;;;;;;;;;16.20;99.90;;;;;;5091594;28;19920;-82
2021/07/03 05:33:58;;;;;;;;;;;16.20;99.90;;;;;;5093017;28;19958;-82
2021/07/03 05:36:24;;;;;;;;;;;16.20;99.90;;;;;;5093053;28;19931;-82
2021/07/03 05:38:51;;;;;;;;;;;16.30;99.90;;;;;;5091277;28;20294;-83
2021/07/03 05:41:17;;;;;;;;;;;16.30;99.90;;;;;;5091316;28;20279;-83
2021/07/03 05:43:43;;;;;;;;;;;16.30;99.90;;;;;;5091397;28;19931;-82
2021/07/03 05:46:10;;;;;;;;;;;16.30;99.90;;;;;;5125251;27;19928;-83
2021/07/03 05:48:36;;;;;;;;;;;16.40;99.90;;;;;;5108495;28;19924;-82
2021/07/03 05:51:02;;;;;;;;;;;16.40;99.90;;;;;;5091602;28;19932;-82
2021/07/03 05:53:28;;;;;;;;;;;16.40;99.90;;;;;;5090897;28;20011;-83
2021/07/03 05:55:54;;;;;;;;;;;16.40;99.90;;;;;;5074625;28;20015;-83
2021/07/03 05:58:20;;;;;;;;;;;16.40;99.90;;;;;;5074244;28;20035;-82
2021/07/03 06:00:46;;;;;;;;;;;16.50;99.90;;;;;;5091086;28;20014;-82
2021/07/03 06:03:12;;;;;;;;;;;16.50;99.90;;;;;;5074375;28;19916;-82
2021/07/03 06:05:38;;;;;;;;;;;16.50;99.90;;;;;;5090974;28;19985;-82
2021/07/03 06:08:06;;;;;;;;;;;16.50;99.90;;;;;;5074690;28;19944;-83
2021/07/03 06:10:32;;;;;;;;;;;16.60;99.90;;;;;;5090696;28;19920;-83
2021/07/03 06:12:58;;;;;;;;;;;16.60;99.90;;;;;;5074074;28;20268;-82
2021/07/03 06:15:24;;;;;;;;;;;16.60;99.90;;;;;;5073755;28;20014;-82
2021/07/03 06:17:50;;;;;;;;;;;16.60;99.90;;;;;;5073133;28;20314;-83
2021/07/03 06:20:16;;;;;;;;;;;16.60;99.90;;;;;;5090758;28;19928;-83
2021/07/03 06:22:41;;;;;;;;;;;16.60;99.90;;;;;;5090995;28;19931;-82
2021/07/03 06:25:09;;;;;;;;;;;16.60;99.90;;;;;;5089743;28;19924;-82
2021/07/03 06:27:35;;;;;;;;;;;16.60;99.90;;;;;;5089381;28;20361;-83
2021/07/03 06:30:00;;;;;;;;;;;16.70;99.90;;;;;;5089986;28;19934;-82
2021/07/03 06:32:26;;;;;;;;;;;16.70;99.90;;;;;;5072178;28;19928;-83
2021/07/03 06:34:52;;;;;;;;;;;16.70;99.90;;;;;;5070535;28;20317;-83
2021/07/03 06:37:18;;;;;;;;;;;16.70;99.90;;;;;;5070979;28;19924;-83
2021/07/03 06:39:44;;;;;;;;;;;16.70;99.90;;;;;;5071620;28;19927;-83
2021/07/03 06:42:13;;;;;;;;;;;16.70;99.90;;;;;;5072621;28;19927;-83
2021/07/03 06:44:39;;;;;;;;;;;16.80;99.90;;;;;;5090654;28;19920;-83
2021/07/03 06:47:05;;;;;;;;;;;16.80;99.90;;;;;;5090382;28;20440;-82
2021/07/03 06:49:30;;;;;;;;;;;16.90;99.90;;;;;;5089727;28;19967;-83
2021/07/03 06:51:56;;;;;;;;;;;16.90;99.90;;;;;;5089911;28;19947;-83
2021/07/03 06:54:22;;;;;;;;;;;16.90;99.90;;;;;;5073136;28;19967;-83
2021/07/03 06:56:57;;;;;;;;;;;17.00;99.90;;;;;;5090009;28;20019;-83
2021/07/03 06:59:24;;;;;;;;;;;17.00;99.90;;;;;;5088453;28;20276;-84
2021/07/03 07:01:50;;;;;;;;;;;17.00;99.90;;;;;;5047805;28;19920;-83
2021/07/03 07:04:16;;;;;;;;;;;17.00;99.90;;;;;;5063995;28;20041;-83
2021/07/03 07:06:41;;;;;;;;;;;17.10;99.90;;;;;;5071893;28;19928;-83
2021/07/03 07:09:07;;;;;;;;;;;17.10;99.90;;;;;;5072535;28;19989;-86
2021/07/03 07:11:33;;;;;;;;;;;17.10;99.90;;;;;;5070565;28;19959;-86
2021/07/03 07:13:58;;;;;;;;;;;17.20;99.90;;;;;;5063946;28;19942;-88
2021/07/03 07:16:24;;;;;;;;;;;17.20;99.90;;;;;;5091972;28;19924;-87
2021/07/03 07:18:50;;;;;;;;;;;17.20;99.90;;;;;;5075566;28;20011;-88
2021/07/03 07:21:15;;;;;;;;;;;17.30;99.90;;;;;;5093616;28;19924;-89
2021/07/03 07:23:41;;;;;;;;;;;17.30;99.90;;;;;;5075396;28;19920;-92
2021/07/03 07:26:07;;;;;;;;;;;17.30;99.90;;;;;;5075390;28;20432;-92
2021/07/03 07:28:33;;;;;;;;;;;17.30;99.90;;;;;;5075485;28;19977;-87
2021/07/03 07:30:59;;;;;;;;;;;17.40;99.90;;;;;;5070972;28;19920;-91
2021/07/03 07:33:24;;;;;;;;;;;17.40;99.90;;;;;;5075038;28;19927;-88
2021/07/03 07:35:50;;;;;;;;;;;17.50;99.90;;;;;;5068712;28;20754;-93
2021/07/03 07:38:16;;;;;;;;;;;17.50;99.90;;;;;;5072110;28;19925;-91
2021/07/03 07:40:41;;;;;;;;;;;17.50;99.90;;;;;;5058668;28;19928;-93
2021/07/03 07:43:07;;;;;;;;;;;17.50;99.90;;;;;;5058693;28;19930;-86
2021/07/03 07:45:33;;;;;;;;;;;17.60;99.90;;;;;;5091334;28;19920;-87
2021/07/03 07:47:59;;;;;;;;;;;17.60;99.90;;;;;;5090709;28;19923;-89
2021/07/03 07:50:24;;;;;;;;;;;17.60;99.90;;;;;;5075639;28;19919;-91
2021/07/03 07:52:50;;;;;;;;;;;17.60;99.90;;;;;;5058544;28;20401;-90
2021/07/03 07:55:16;;;;;;;;;;;17.70;99.90;;;;;;5075180;28;19930;-90
2021/07/03 07:57:42;;;;;;;;;;;17.70;99.90;;;;;;5058556;28;20360;-89
2021/07/03 08:00:08;;;;;;;;;;;17.70;99.90;;;;;;5091142;28;20012;-88
2021/07/03 08:02:34;;;;;;;;;;;17.70;99.90;;;;;;5091615;28;20359;-89
2021/07/03 08:05:00;;;;;;;;;;;17.70;99.90;;;;;;5091529;28;19928;-88
2021/07/03 08:07:25;;;;;;;;;;;17.70;99.90;;;;;;5070606;28;19929;-86
2021/07/03 08:09:51;;;;;;;;;;;17.70;99.90;;;;;;5089860;28;19924;-87
2021/07/03 08:12:17;;;;;;;;;;;17.80;99.90;;;;;;5066128;28;19931;-86
2021/07/03 08:14:42;;;;;;;;;;;17.80;99.90;;;;;;5069228;28;19920;-87
2021/07/03 08:17:08;;;;;;;;;;;17.80;99.90;;;;;;5090480;28;20014;-86
2021/07/03 08:19:34;;;;;;;;;;;17.80;99.90;;;;;;5070251;28;20342;-86
2021/07/03 08:22:01;;;;;;;;;;;17.90;99.90;;;;;;5090051;28;19931;-87
2021/07/03 08:24:27;;;;;;;;;;;17.90;99.90;;;;;;5073571;28;19962;-87
2021/07/03 08:26:52;;;;;;;;;;;17.90;99.90;;;;;;5089273;28;19928;-86
2021/07/03 08:29:18;;;;;;;;;;;17.90;99.90;;;;;;5089262;28;19920;-87
2021/07/03 08:31:43;;;;;;;;;;;18.00;99.90;;;;;;5089298;28;19924;-86
2021/07/03 08:34:09;;;;;;;;;;;18.00;99.90;;;;;;5072542;28;19927;-87
2021/07/03 08:36:35;;;;;;;;;;;18.00;99.90;;;;;;5072919;28;19920;-87
2021/07/03 08:39:00;;;;;;;;;;;18.00;99.90;;;;;;5056690;28;19932;-86
2021/07/03 08:41:27;;;;;;;;;;;18.10;99.90;;;;;;5073655;28;19928;-87
2021/07/03 08:43:53;;;;;;;;;;;18.10;99.90;;;;;;5056549;28;19982;-87
2021/07/03 08:46:21;;;;;;;;;;;18.10;99.90;;;;;;5072740;28;20494;-87
2021/07/03 08:48:53;;;;;;;;;;;18.10;99.90;;;;;;5106705;28;20349;-86
2021/07/03 08:51:19;;;;;;;;;;;18.10;99.90;;;;;;5123833;28;19993;-86
2021/07/03 08:53:44;;;;;;;;;;;18.10;99.90;;;;;;5123913;28;19920;-87
2021/07/03 08:56:10;;;;;;;;;;;18.10;99.90;;;;;;5073027;28;19920;-87
2021/07/03 08:58:36;;;;;;;;;;;18.10;99.90;;;;;;5090410;28;19931;-87
2021/07/03 09:01:03;;;;;;;;;;;18.10;99.90;;;;;;5072660;28;19932;-87
2021/07/03 09:03:28;;;;;;;;;;;18.10;99.90;;;;;;5090501;28;19927;-86
2021/07/03 09:05:56;;;;;;;;;;;18.20;99.90;;;;;;5073431;28;19924;-87
2021/07/03 09:08:31;;;;;;;;;;;18.20;99.90;;;;;;5089759;28;19934;-86
2021/07/03 09:11:07;;;;;;;;;;;18.20;99.90;;;;;;5090174;28;19924;-87
2021/07/03 09:13:33;;;;;;;;;;;18.30;99.90;;;;;;5089708;28;19924;-87
2021/07/03 09:15:59;;;;;;;;;;;18.40;99.90;;;;;;5090029;28;19998;-86
2021/07/03 09:18:30;;;;;;;;;;;18.40;99.90;;;;;;5090069;28;19934;-86
2021/07/03 09:20:57;;;;;;;;;;;18.50;99.90;;;;;;5090363;28;19920;-87
2021/07/03 09:23:24;;;;;;;;;;;18.50;99.90;;;;;;5090222;28;19927;-86
2021/07/03 09:25:53;;;;;;;;;;;18.60;99.90;;;;;;5089984;28;19970;-87
2021/07/03 09:28:26;;;;;;;;;;;18.60;99.90;;;;;;5123578;28;20019;-86
2021/07/03 09:30:53;;;;;;;;;;;18.60;99.90;;;;;;5089906;28;19946;-86
2021/07/03 09:33:26;;;;;;;;;;;18.70;99.90;;;;;;5090333;28;19924;-87
2021/07/03 09:35:56;;;;;;;;;;;18.70;99.90;;;;;;5091070;28;19921;-87
2021/07/03 09:38:31;;;;;;;;;;;18.80;99.90;;;;;;5073370;28;19927;-87
2021/07/03 09:41:08;;;;;;;;;;;18.90;99.90;;;;;;5089851;28;20769;-87
2021/07/03 09:43:33;;;;;;;;;;;18.80;99.90;;;;;;5089673;28;19942;-87
2021/07/03 09:49:45;;;;;;;;;;;19.00;99.90;;;;;;5068659;28;19969;-87
2021/07/03 09:52:11;;;;;;;;;;;19.00;99.90;;;;;;5068536;28;19924;-87
2021/07/03 09:54:37;;;;;;;;;;;19.00;99.90;;;;;;5038177;28;19935;-87
2021/07/03 09:57:03;;;;;;;;;;;19.00;99.90;;;;;;5054833;28;20372;-87
2021/07/03 09:59:30;;;;;;;;;;;19.10;99.90;;;;;;5053792;28;19963;-86
2021/07/03 10:01:57;;;;;;;;;;;19.10;99.90;;;;;;5054607;28;19928;-86
2021/07/03 10:04:23;;;;;;;;;;;19.10;99.90;;;;;;5055290;28;19928;-87
2021/07/03 10:07:00;;;;;;;;;;;19.20;99.90;;;;;;5070511;28;19920;-86
2021/07/03 10:09:44;;;;;;;;;;;19.20;99.90;;;;;;5067412;28;19929;-86
2021/07/03 10:16:01;;;;;;;;;;;19.30;99.90;;;;;;5048366;28;20369;-85
2021/07/03 10:18:26;;;;;;;;;;;19.30;99.90;;;;;;5066423;28;19924;-85
2021/07/03 10:21:05;;;;;;;;;;;19.40;99.90;;;;;;5051652;28;19925;-86
2021/07/03 10:23:34;;;;;;;;;;;19.40;99.90;;;;;;5075667;28;20007;-86
2021/07/03 10:26:00;;;;;;;;;;;19.40;99.90;;;;;;5085943;28;20015;-86
2021/07/03 10:28:29;;;;;;;;;;;19.40;99.90;;;;;;5070139;28;20016;-86
2021/07/03 10:31:02;;;;;;;;;;;19.40;99.90;;;;;;5059493;28;19952;-87
2021/07/03 10:33:28;;;;;;;;;;;19.40;99.90;;;;;;5084541;28;19924;-86
2021/07/03 10:35:54;;;;;;;;;;;19.50;99.90;;;;;;5070235;28;19920;-86
2021/07/03 10:38:22;;;;;;;;;;;19.40;99.90;;;;;;5069243;28;19920;-86
2021/07/03 10:40:49;;;;;;;;;;;19.40;99.90;;;;;;5091543;28;20019;-86
2021/07/03 10:43:15;;;;;;;;;;;19.40;99.90;;;;;;5057902;28;19920;-84
2021/07/03 10:45:51;;;;;;;;;;;19.50;99.90;;;;;;5046933;28;19924;-86
2021/07/03 10:48:22;;;;;;;;;;;19.50;99.90;;;;;;5107939;27;19928;-86
2021/07/03 10:50:49;;;;;;;;;;;19.50;99.90;;;;;;5102683;28;20410;-85
2021/07/03 10:53:34;;;;;;;;;;;19.50;99.90;;;;;;5090697;28;19970;-85
2021/07/03 10:56:14;;;;;;;;;;;19.50;99.90;;;;;;5102783;28;19925;-86
2021/07/03 10:58:40;;;;;;;;;;;19.50;99.90;;;;;;5109861;27;20314;-86
2021/07/03 11:01:06;;;;;;;;;;;19.50;99.90;;;;;;5065412;28;19935;-86
2021/07/03 11:03:40;;;;;;;;;;;19.50;99.90;;;;;;5112631;27;19951;-87
2021/07/03 11:06:19;;;;;;;;;;;19.60;99.90;;;;;;5105469;28;19928;-86
2021/07/03 11:08:45;;;;;;;;;;;19.60;99.90;;;;;;5099188;28;19920;-86
2021/07/03 11:11:11;;;;;;;;;;;19.70;99.90;;;;;;5091089;28;19933;-86
2021/07/03 11:13:37;;;;;;;;;;;19.70;99.90;;;;;;5091065;28;20541;-86
2021/07/03 11:16:06;;;;;;;;;;;19.80;99.90;;;;;;5072571;28;20019;-86
2021/07/03 11:18:42;;;;;;;;;;;19.80;99.90;;;;;;5090986;28;19930;-85
2021/07/03 11:21:08;;;;;;;;;;;19.90;99.90;;;;;;5125545;27;20018;-86
2021/07/03 11:23:35;;;;;;;;;;;19.90;99.90;;;;;;5122149;27;19920;-86
2021/07/03 11:26:07;;;;;;;;;;;20.00;99.90;;;;;;5059507;28;19939;-85
2021/07/03 11:28:33;;;;;;;;;;;20.00;99.90;;;;;;5071490;28;19924;-86
2021/07/03 11:30:59;;;;;;;;;;;20.00;99.90;;;;;;5070279;28;20051;-86
2021/07/03 11:33:30;;;;;;;;;;;20.10;99.90;;;;;;5070645;28;20295;-86
2021/07/03 11:39:20;;;;;;;;;;;20.20;99.90;;;;;;5076267;28;19961;-86
2021/07/03 11:41:46;;;;;;;;;;;20.20;99.90;;;;;;5106945;28;19990;-86
2021/07/03 11:44:11;;;;;;;;;;;20.20;99.90;;;;;;5091327;28;19923;-86
2021/07/03 11:46:37;;;;;;;;;;;20.20;99.90;;;;;;5122442;27;19928;-85
2021/07/03 11:49:03;;;;;;;;;;;20.30;99.90;;;;;;5090511;28;19924;-86
2021/07/03 11:51:29;;;;;;;;;;;20.30;99.90;;;;;;5057445;28;19980;-86
2021/07/03 11:53:54;;;;;;;;;;;20.40;99.90;;;;;;5090429;28;19985;-86
2021/07/03 11:56:22;;;;;;;;;;;20.40;99.90;;;;;;5073770;28;19920;-86
2021/07/03 11:58:49;;;;;;;;;;;20.50;99.90;;;;;;5091729;28;19924;-86
2021/07/03 12:01:17;;;;;;;;;;;20.50;99.90;;;;;;5088459;28;19920;-86
2021/07/03 12:03:44;;;;;;;;;;;20.50;99.90;;;;;;5091408;28;19931;-86
2021/07/03 12:06:10;;;;;;;;;;;20.60;99.90;;;;;;5073014;28;20474;-86
2021/07/03 12:08:39;;;;;;;;;;;20.60;99.90;;;;;;5088498;28;20024;-87
2021/07/03 12:11:09;;;;;;;;;;;20.60;99.90;;;;;;5070024;28;19931;-86
2021/07/03 12:13:36;;;;;;;;;;;20.60;99.90;;;;;;5081151;28;19926;-86
2021/07/03 12:16:03;;;;;;;;;;;20.60;99.90;;;;;;5117496;27;19928;-87
2021/07/03 12:18:38;;;;;;;;;;;20.60;99.90;;;;;;5089806;28;19931;-86
2021/07/03 12:21:17;;;;;;;;;;;20.60;99.90;;;;;;5090064;28;20472;-86
2021/07/03 12:23:45;;;;;;;;;;;20.70;99.90;;;;;;5089241;28;19924;-86
2021/07/03 12:26:11;;;;;;;;;;;20.70;99.90;;;;;;5072007;28;20269;-86
2021/07/03 12:28:38;;;;;;;;;;;20.70;99.90;;;;;;5072547;28;19932;-86
2021/07/03 12:31:08;;;;;;;;;;;20.70;99.90;;;;;;5089327;28;20444;-86
2021/07/03 12:33:35;;;;;;;;;;;20.70;99.90;;;;;;5089329;28;19973;-86
2021/07/03 12:36:01;;;;;;;;;;;20.80;99.90;;;;;;5072709;28;20412;-87
2021/07/03 12:38:28;;;;;;;;;;;20.80;99.90;;;;;;5091328;28;19963;-86
2021/07/03 12:40:54;;;;;;;;;;;20.80;99.90;;;;;;5089349;28;19924;-86
2021/07/03 12:43:30;;;;;;;;;;;20.90;99.90;;;;;;5089061;28;19919;-86
2021/07/03 12:45:59;;;;;;;;;;;20.90;99.90;;;;;;5089097;28;20026;-87
2021/07/03 12:48:32;;;;;;;;;;;20.90;99.90;;;;;;5072324;28;19920;-87
2021/07/03 12:50:59;;;;;;;;;;;20.90;99.90;;;;;;5073602;28;19935;-87
2021/07/03 12:53:30;;;;;;;;;;;21.00;99.90;;;;;;5090314;28;19931;-87
2021/07/03 12:55:57;;;;;;;;;;;21.00;99.90;;;;;;5088907;28;19927;-87
2021/07/03 12:58:24;;;;;;;;;;;21.00;99.90;;;;;;5090096;28;20476;-87
2021/07/03 13:00:50;;;;;;;;;;;21.00;99.90;;;;;;5089973;28;20481;-87
2021/07/03 13:03:16;;;;;;;;;;;21.00;99.90;;;;;;5089916;28;20665;-86
2021/07/03 13:09:05;;;;;;;;;;;21.10;99.90;;;;;;5090898;28;19919;-87
2021/07/03 13:11:30;;;;;;;;;;;21.20;99.90;;;;;;5072959;28;19954;-86
2021/07/03 13:13:56;;;;;;;;;;;21.20;99.90;;;;;;5072563;28;19927;-86
2021/07/03 13:22:56;;;;;;;;;;;21.30;99.90;;;;;;5090565;28;20386;-86
2021/07/03 13:25:22;;;;;;;;;;;21.20;99.90;;;;;;5106506;28;19921;-86
2021/07/03 13:27:48;;;;;;;;;;;21.10;99.90;;;;;;5123934;27;20382;-87
2021/07/03 13:30:16;;;;;;;;;;;21.10;99.90;;;;;;5127866;27;19928;-87
2021/07/03 13:32:42;;;;;;;;;;;21.10;99.90;;;;;;5076801;28;20009;-87
2021/07/03 13:35:09;;;;;;;;;;;21.10;99.90;;;;;;5094888;28;19924;-87
2021/07/03 13:37:34;;;;;;;;;;;21.10;99.90;;;;;;5093566;28;19959;-86
2021/07/03 13:40:00;;;;;;;;;;;21.10;99.90;;;;;;5110317;28;20452;-87
2021/07/03 13:42:26;;;;;;;;;;;21.20;99.90;;;;;;5093370;28;20750;-87
2021/07/03 13:44:51;;;;;;;;;;;21.20;99.90;;;;;;5093335;28;19928;-87
2021/07/03 13:47:17;;;;;;;;;;;21.20;99.90;;;;;;5127298;27;19924;-87
2021/07/03 13:49:43;;;;;;;;;;;21.20;99.90;;;;;;5110355;28;19924;-87
2021/07/03 13:52:09;;;;;;;;;;;21.20;99.90;;;;;;5093875;28;20010;-87
2021/07/03 13:54:35;;;;;;;;;;;21.20;99.90;;;;;;5110190;28;19927;-86
2021/07/03 13:57:00;;;;;;;;;;;21.20;99.90;;;;;;5093400;28;19955;-86
2021/07/03 14:02:48;;;;;;;;;;;21.20;99.90;;;;;;5093689;28;20286;-86
2021/07/03 14:05:14;;;;;;;;;;;21.20;99.90;;;;;;5110023;28;19924;-86
2021/07/03 14:10:56;;;;;;;;;;;21.20;99.90;;;;;;5093557;28;19993;-87
2021/07/03 14:13:22;;;;;;;;;;;21.20;99.90;;;;;;5092454;28;20688;-86
2021/07/03 14:15:47;;;;;;;;;;;21.20;99.90;;;;;;5076147;28;19924;-85
2021/07/03 14:18:13;;;;;;;;;;;21.20;99.90;;;;;;5092820;28;19959;-87
2021/07/03 14:20:39;;;;;;;;;;;21.20;99.90;;;;;;5092706;28;20367;-86
2021/07/03 14:23:04;;;;;;;;;;;21.10;99.90;;;;;;5092925;28;20375;-86
2021/07/03 14:25:30;;;;;;;;;;;21.10;99.90;;;;;;5059231;28;19924;-87
2021/07/03 14:27:56;;;;;;;;;;;21.10;99.90;;;;;;5093342;28;19972;-86
2021/07/03 14:30:22;;;;;;;;;;;21.10;99.90;;;;;;5092591;28;19924;-86
2021/07/03 14:32:47;;;;;;;;;;;21.10;99.90;;;;;;5092723;28;20556;-86
2021/07/03 14:35:13;;;;;;;;;;;21.00;99.90;;;;;;5092992;28;20022;-87
2021/07/03 14:37:39;;;;;;;;;;;21.00;99.90;;;;;;5075616;28;20010;-86
2021/07/03 14:40:05;;;;;;;;;;;21.00;99.90;;;;;;5058048;28;19959;-86